createdAt,value
2022-08-11T00:01:56.881Z,20.2198
2022-08-11T00:06:57.881Z,20.14162
2022-08-11T00:11:59.063Z,20.02531
2022-08-11T00:17:00.094Z,19.96942
2022-08-11T00:22:04.425Z,19.90771
2022-08-11T00:27:07.017Z,19.84051
2022-08-11T00:32:07.963Z,19.75328
2022-08-11T00:37:08.965Z,19.67898
2022-08-11T00:42:09.896Z,19.59304
2022-08-11T00:47:10.804Z,19.51001
2022-08-11T00:52:11.727Z,19.4105
2022-08-11T00:57:36.100Z,19.31164
2022-08-11T01:02:39.212Z,19.21537
2022-08-11T01:08:02.916Z,19.13912
2022-08-11T01:13:04.445Z,19.10876
2022-08-11T01:18:09.528Z,19.09583
2022-08-11T01:23:12.567Z,19.03089
2022-08-11T01:28:16.822Z,18.95239
2022-08-11T01:33:17.770Z,18.83931
2022-08-11T01:38:18.783Z,18.76145
2022-08-11T01:43:19.672Z,18.69749
2022-08-11T01:48:20.587Z,18.61316
2022-08-11T01:53:21.534Z,18.54597
2022-08-11T01:58:22.418Z,18.49266
2022-08-11T02:03:41.770Z,18.42094
2022-08-11T02:08:44.291Z,18.3476
2022-08-11T02:13:50.579Z,18.26199
2022-08-11T02:18:51.813Z,18.17444
2022-08-11T02:24:04.161Z,18.09916
2022-08-11T02:29:08.406Z,18.03907
2022-08-11T02:34:09.356Z,17.99029
2022-08-11T02:39:10.358Z,17.92244
2022-08-11T02:44:11.408Z,17.82262
2022-08-11T02:49:12.338Z,17.79451
2022-08-11T02:54:13.246Z,17.74637
2022-08-11T02:59:14.164Z,17.68693
2022-08-11T03:04:15.116Z,17.58646
2022-08-11T03:09:16.006Z,17.49277
2022-08-11T03:14:16.926Z,17.43138
2022-08-11T03:19:17.844Z,17.39552
2022-08-11T03:24:18.901Z,17.35966
2022-08-11T03:29:25.034Z,17.2663
2022-08-11T03:34:26.561Z,17.2075
2022-08-11T03:39:27.529Z,17.16744
2022-08-11T03:44:28.554Z,17.07957
2022-08-11T03:49:29.776Z,17.02917
2022-08-11T03:54:30.789Z,17.01818
2022-08-11T03:59:31.796Z,16.99589
2022-08-11T04:04:32.721Z,17.02335
2022-08-11T04:09:33.625Z,16.96391
2022-08-11T04:14:34.605Z,16.91416
2022-08-11T04:19:35.520Z,16.88831
2022-08-11T04:24:39.504Z,16.8867
2022-08-11T04:30:03.286Z,16.89445
2022-08-11T04:35:05.909Z,16.96649
2022-08-11T04:40:06.810Z,16.95745
2022-08-11T04:45:07.742Z,17.01011
2022-08-11T04:50:08.667Z,17.07084
2022-08-11T04:55:09.599Z,17.20976
2022-08-11T05:00:10.504Z,17.26856
2022-08-11T05:05:11.530Z,17.38292
2022-08-11T05:10:12.443Z,17.46886
2022-08-11T05:15:13.379Z,17.6207
2022-08-11T05:20:14.271Z,17.75445
2022-08-11T05:25:15.201Z,17.83877
2022-08-11T05:31:46.849Z,18.06363
2022-08-11T05:36:47.770Z,18.20836
2022-08-11T05:41:48.671Z,18.42029
2022-08-11T05:46:49.619Z,18.57375
2022-08-11T05:51:55.273Z,18.72107
2022-08-11T05:56:56.673Z,18.88261
2022-08-11T06:01:57.625Z,20.36002
2022-08-11T06:06:58.608Z,20.21463
2022-08-11T06:11:59.535Z,20.02822
2022-08-11T06:17:00.537Z,20.10608
2022-08-11T06:22:01.455Z,20.28636
2022-08-11T06:27:12.375Z,20.38716
2022-08-11T06:32:14.282Z,20.55483
2022-08-11T06:37:15.182Z,20.72736
2022-08-11T06:42:16.118Z,21.02588
2022-08-11T06:47:17.013Z,21.2039
2022-08-11T06:52:34.731Z,21.44556
2022-08-11T06:57:36.917Z,21.64328
2022-08-11T07:02:37.992Z,22.11918
2022-08-11T07:07:39.100Z,22.18218
2022-08-11T07:12:40.088Z,22.32402
2022-08-11T07:17:41.087Z,22.44194
2022-08-11T07:22:42.011Z,22.61156
2022-08-11T07:27:42.901Z,23.76401
2022-08-11T07:32:43.877Z,25.8683
2022-08-11T07:37:44.844Z,25.07091
2022-08-11T07:42:45.756Z,24.51002
2022-08-11T07:47:46.692Z,24.42763
2022-08-11T07:52:47.614Z,24.38983
2022-08-11T07:58:15.954Z,24.47286
2022-08-11T08:03:20.987Z,24.64895
2022-08-11T08:08:21.995Z,25.14877
2022-08-11T08:13:24.129Z,25.28512
2022-08-11T08:18:27.646Z,25.27122
2022-08-11T08:23:28.958Z,25.51419
2022-08-11T08:28:32.463Z,25.81596
2022-08-11T08:33:33.870Z,25.85958
2022-08-11T08:38:34.827Z,25.90287
2022-08-11T08:43:48.903Z,26.09285
2022-08-11T08:48:53.125Z,27.22305
2022-08-11T08:53:56.685Z,27.09866
2022-08-11T08:58:59.566Z,27.46408
2022-08-11T09:04:04.957Z,27.38815
2022-08-11T09:09:10.114Z,27.52967
2022-08-11T09:14:14.787Z,27.65439
2022-08-11T09:19:16.181Z,27.84631
2022-08-11T09:24:25.874Z,27.7846
2022-08-11T09:29:27.453Z,27.84276
2022-08-11T09:34:28.371Z,28.11804
2022-08-11T09:39:31.201Z,28.0699
2022-08-11T09:44:32.586Z,28.3426
2022-08-11T09:49:35.353Z,28.60173
2022-08-11T09:54:36.260Z,29.00658
2022-08-11T09:59:37.182Z,29.13744
2022-08-11T10:04:38.289Z,29.16684
2022-08-11T10:09:39.381Z,29.3397
2022-08-11T10:14:44.385Z,29.59463
2022-08-11T10:19:45.647Z,29.85635
2022-08-11T10:25:05.674Z,30.2877
2022-08-11T10:30:06.565Z,30.2415
2022-08-11T10:35:08.221Z,30.2457
2022-08-11T10:40:09.159Z,30.29287
2022-08-11T10:45:10.051Z,30.73909
2022-08-11T10:50:10.959Z,30.4247
2022-08-11T10:55:12.112Z,29.63631
2022-08-11T11:00:13.140Z,29.33776
2022-08-11T11:05:14.111Z,29.49091
2022-08-11T11:10:15.128Z,29.33809
2022-08-11T11:15:17.722Z,29.69286
2022-08-11T11:20:36.382Z,29.81532
2022-08-11T11:25:40.139Z,30.05797
2022-08-11T11:30:41.021Z,30.06314
2022-08-11T11:35:41.947Z,30.16815
2022-08-11T11:40:42.921Z,30.14715
2022-08-11T11:45:43.927Z,29.80627
2022-08-11T11:50:45.023Z,29.87283
2022-08-11T11:55:45.965Z,29.81822
2022-08-11T12:00:46.874Z,29.9927
2022-08-11T12:05:47.774Z,30.06443
2022-08-11T12:10:48.744Z,30.24376
2022-08-11T12:16:31.617Z,30.51582
2022-08-11T12:21:37.061Z,30.88998
2022-08-11T12:26:37.979Z,31.01535
2022-08-11T12:31:39.278Z,31.0832
2022-08-11T12:36:40.220Z,31.18369
2022-08-11T12:41:41.248Z,31.4606
2022-08-11T12:46:42.551Z,31.87904
2022-08-11T12:52:11.127Z,32.51461
2022-08-11T12:57:15.090Z,32.98087
2022-08-11T13:02:25.045Z,33.28783
2022-08-11T13:07:50.481Z,33.81097
2022-08-11T13:12:52.368Z,33.95347
2022-08-11T13:17:53.390Z,34.14088
2022-08-11T13:22:54.404Z,34.40519
2022-08-11T13:27:55.429Z,34.75869
2022-08-11T13:32:59.639Z,35.32481
2022-08-11T13:38:18.533Z,35.31383
2022-08-11T13:43:20.972Z,35.34032
2022-08-11T13:48:21.979Z,35.54939
2022-08-11T13:53:22.875Z,35.57394
2022-08-11T13:58:40.587Z,35.64633
2022-08-11T14:04:30.515Z,35.91743
2022-08-11T14:09:32.990Z,36.11971
2022-08-11T14:14:33.937Z,36.11325
2022-08-11T14:19:34.926Z,36.15493
2022-08-11T14:24:35.924Z,36.20566
2022-08-11T14:29:48.567Z,36.14201
2022-08-11T14:34:50.090Z,36.06801
2022-08-11T14:39:51.096Z,36.14879
2022-08-11T14:44:52.115Z,36.14427
2022-08-11T14:50:08.227Z,36.0693
2022-08-11T14:55:13.405Z,35.98981
2022-08-11T15:00:14.285Z,35.99595
2022-08-11T15:05:15.241Z,36.28774
2022-08-11T15:10:16.174Z,36.03344
2022-08-11T15:15:17.108Z,35.95621
2022-08-11T15:20:18.021Z,35.84893
2022-08-11T15:25:18.978Z,35.7927
2022-08-11T15:30:33.572Z,35.76976
2022-08-11T15:35:39.516Z,35.71095
2022-08-11T15:40:40.754Z,35.36843
2022-08-11T15:45:44.522Z,35.18781
2022-08-11T15:50:45.469Z,35.09668
2022-08-11T15:55:46.387Z,35.06889
2022-08-11T16:00:47.320Z,34.88988
2022-08-11T16:05:52.860Z,34.6317
2022-08-11T16:10:54.292Z,34.3661
2022-08-11T16:15:56.361Z,34.06559
2022-08-11T16:20:57.262Z,33.83294
2022-08-11T16:27:11.227Z,33.71952
2022-08-11T16:32:14.429Z,33.35084
2022-08-11T16:37:15.500Z,32.97344
2022-08-11T16:43:00.187Z,32.70137
2022-08-11T16:48:33.435Z,32.48036
2022-08-11T16:54:04.666Z,32.25159
2022-08-11T16:59:07.034Z,31.74236
2022-08-11T17:04:08.043Z,31.51101
2022-08-11T17:09:08.989Z,31.35656
2022-08-11T17:14:09.883Z,31.153
2022-08-11T17:19:10.818Z,30.92068
2022-08-11T17:24:11.788Z,30.67059
2022-08-11T17:29:12.715Z,30.51808
2022-08-11T17:34:13.629Z,30.26218
2022-08-11T17:39:14.671Z,29.93584
2022-08-11T17:44:15.724Z,29.72678
2022-08-11T17:49:16.712Z,29.63082
2022-08-11T17:54:24.673Z,29.3523
2022-08-11T17:59:26.397Z,29.15715
2022-08-11T18:04:33.396Z,29.00173
2022-08-11T18:09:34.288Z,28.76166
2022-08-11T18:14:35.277Z,28.48509
2022-08-11T18:19:36.276Z,28.29381
2022-08-11T18:24:37.253Z,28.12289
2022-08-11T18:29:41.959Z,27.93872
2022-08-11T18:34:45.762Z,27.7581
2022-08-11T18:39:56.271Z,27.6308
2022-08-11T18:44:57.770Z,27.49025
2022-08-11T18:50:02.187Z,27.28799
2022-08-11T18:55:05.144Z,27.08605
2022-08-11T19:00:06.056Z,26.87992
2022-08-11T19:05:07.005Z,26.68703
2022-08-11T19:10:07.918Z,26.4838
2022-08-11T19:15:08.833Z,26.31256
2022-08-11T19:20:09.837Z,26.13001
2022-08-11T19:25:10.828Z,26.01854
2022-08-11T19:30:13.975Z,25.88963
2022-08-11T19:35:18.149Z,25.82565
2022-08-11T19:40:19.116Z,25.55781
2022-08-11T19:45:19.984Z,25.34618
2022-08-11T19:50:24.260Z,25.14974
2022-08-11T19:55:25.376Z,24.97624
2022-08-11T20:00:29.914Z,24.8218
2022-08-11T20:05:31.438Z,24.67447
2022-08-11T20:10:32.369Z,24.52714
2022-08-11T20:15:33.291Z,24.38401
2022-08-11T20:20:34.872Z,24.22085
2022-08-11T20:25:36.102Z,24.09194
2022-08-11T20:30:37.039Z,23.95721
2022-08-11T20:35:37.943Z,23.80019
2022-08-11T20:40:39.223Z,23.6884
2022-08-11T20:45:55.346Z,23.53365
2022-08-11T20:50:58.417Z,23.3734
2022-08-11T20:55:59.361Z,23.28616
2022-08-11T21:01:07.561Z,23.14207
2022-08-11T21:06:31.170Z,23.03545
2022-08-11T21:11:32.787Z,22.86615
2022-08-11T21:16:34.578Z,22.72626
2022-08-11T21:21:45.599Z,22.64128
2022-08-11T21:26:47.411Z,22.62481
2022-08-11T21:31:48.309Z,22.55276
2022-08-11T21:36:49.290Z,22.51851
2022-08-11T21:41:50.235Z,22.48136
2022-08-11T21:46:51.130Z,22.48976
2022-08-11T21:51:52.068Z,22.42773
2022-08-11T21:56:53.069Z,22.29979
2022-08-11T22:01:54.093Z,22.29817
2022-08-11T22:06:55.106Z,22.20803
2022-08-11T22:12:29.888Z,22.15472
2022-08-11T22:17:43.653Z,22.10755
2022-08-11T22:22:52.502Z,22.07169
2022-08-11T22:27:54.329Z,22.00869
2022-08-11T22:32:55.235Z,21.9234
2022-08-11T22:37:56.149Z,21.79255
2022-08-11T22:42:57.064Z,21.77316
2022-08-11T22:47:57.976Z,21.73407
2022-08-11T22:52:58.907Z,21.68173
2022-08-11T22:58:01.210Z,21.58448
2022-08-11T23:03:02.515Z,21.53828
2022-08-11T23:08:03.410Z,21.48821
2022-08-11T23:13:04.374Z,21.4265
2022-08-11T23:18:05.331Z,21.3467
2022-08-11T23:23:07.123Z,21.29533
2022-08-11T23:28:08.692Z,21.23427
2022-08-11T23:33:10.058Z,21.19194
2022-08-11T23:38:11.489Z,21.07919
2022-08-11T23:43:12.385Z,20.99939
2022-08-11T23:48:13.385Z,20.89019
2022-08-11T23:53:14.428Z,20.76839
2022-08-11T23:58:15.439Z,20.66791
